sensor_id;sensor_type;location;lat;lon;timestamp;temperature;humidity
20672;DHT22;10495;50.922;4.760;2023-07-02T00:00:09;19.00;78.70
20672;DHT22;10495;50.922;4.760;2023-07-02T00:02:35;19.00;78.60
20672;DHT22;10495;50.922;4.760;2023-07-02T00:05:01;19.10;78.40
20672;DHT22;10495;50.922;4.760;2023-07-02T00:07:27;19.00;78.50
20672;DHT22;10495;50.922;4.760;2023-07-02T00:09:54;19.00;78.20
20672;DHT22;10495;50.922;4.760;2023-07-02T00:12:20;19.00;79.00
20672;DHT22;10495;50.922;4.760;2023-07-02T00:14:45;19.00;78.40
20672;DHT22;10495;50.922;4.760;2023-07-02T00:17:11;18.90;78.60
20672;DHT22;10495;50.922;4.760;2023-07-02T00:19:40;19.00;78.50
20672;DHT22;10495;50.922;4.760;2023-07-02T00:22:07;18.80;78.80
20672;DHT22;10495;50.922;4.760;2023-07-02T00:24:33;18.80;79.10
20672;DHT22;10495;50.922;4.760;2023-07-02T00:26:59;18.80;79.20
20672;DHT22;10495;50.922;4.760;2023-07-02T00:29:24;18.80;79.80
20672;DHT22;10495;50.922;4.760;2023-07-02T00:31:50;18.80;79.50
20672;DHT22;10495;50.922;4.760;2023-07-02T00:34:15;18.90;79.10
20672;DHT22;10495;50.922;4.760;2023-07-02T00:36:41;18.80;78.90
20672;DHT22;10495;50.922;4.760;2023-07-02T00:39:07;18.90;79.20
20672;DHT22;10495;50.922;4.760;2023-07-02T00:41:32;18.70;79.40
20672;DHT22;10495;50.922;4.760;2023-07-02T00:43:58;18.70;79.90
20672;DHT22;10495;50.922;4.760;2023-07-02T00:46:24;18.70;79.60
20672;DHT22;10495;50.922;4.760;2023-07-02T00:48:54;18.70;79.80
20672;DHT22;10495;50.922;4.760;2023-07-02T00:51:22;18.70;79.90
20672;DHT22;10495;50.922;4.760;2023-07-02T00:53:49;18.90;79.10
20672;DHT22;10495;50.922;4.760;2023-07-02T00:56:15;19.00;78.80
20672;DHT22;10495;50.922;4.760;2023-07-02T00:58:46;18.80;79.30
20672;DHT22;10495;50.922;4.760;2023-07-02T01:01:18;18.70;79.80
20672;DHT22;10495;50.922;4.760;2023-07-02T01:04:10;18.70;79.70
20672;DHT22;10495;50.922;4.760;2023-07-02T01:06:38;18.70;79.60
20672;DHT22;10495;50.922;4.760;2023-07-02T01:09:06;18.80;79.80
20672;DHT22;10495;50.922;4.760;2023-07-02T01:11:45;18.70;79.60
20672;DHT22;10495;50.922;4.760;2023-07-02T01:14:14;18.60;80.00
20672;DHT22;10495;50.922;4.760;2023-07-02T01:16:42;18.60;80.20
20672;DHT22;10495;50.922;4.760;2023-07-02T01:19:16;18.60;80.20
20672;DHT22;10495;50.922;4.760;2023-07-02T01:21:45;18.70;80.80
20672;DHT22;10495;50.922;4.760;2023-07-02T01:24:12;18.60;80.60
20672;DHT22;10495;50.922;4.760;2023-07-02T01:26:39;18.70;80.30
20672;DHT22;10495;50.922;4.760;2023-07-02T01:29:19;18.70;80.10
20672;DHT22;10495;50.922;4.760;2023-07-02T01:31:45;18.70;80.20
20672;DHT22;10495;50.922;4.760;2023-07-02T01:34:11;18.70;80.20
20672;DHT22;10495;50.922;4.760;2023-07-02T01:36:38;18.60;81.00
20672;DHT22;10495;50.922;4.760;2023-07-02T01:39:04;18.70;81.50
20672;DHT22;10495;50.922;4.760;2023-07-02T01:41:29;18.70;81.00
20672;DHT22;10495;50.922;4.760;2023-07-02T01:43:55;18.70;81.20
20672;DHT22;10495;50.922;4.760;2023-07-02T01:46:21;18.80;80.70
20672;DHT22;10495;50.922;4.760;2023-07-02T01:48:46;18.80;80.70
20672;DHT22;10495;50.922;4.760;2023-07-02T01:51:12;18.90;80.40
20672;DHT22;10495;50.922;4.760;2023-07-02T01:53:39;18.80;80.70
20672;DHT22;10495;50.922;4.760;2023-07-02T01:56:04;18.80;80.40
20672;DHT22;10495;50.922;4.760;2023-07-02T01:58:30;18.70;80.60
20672;DHT22;10495;50.922;4.760;2023-07-02T02:00:56;18.80;80.70
20672;DHT22;10495;50.922;4.760;2023-07-02T02:03:22;18.90;80.30
20672;DHT22;10495;50.922;4.760;2023-07-02T02:05:47;18.80;80.50
20672;DHT22;10495;50.922;4.760;2023-07-02T02:08:13;18.80;80.90
20672;DHT22;10495;50.922;4.760;2023-07-02T02:10:39;18.80;80.90
20672;DHT22;10495;50.922;4.760;2023-07-02T02:13:05;18.90;80.80
20672;DHT22;10495;50.922;4.760;2023-07-02T02:15:30;18.90;80.80
20672;DHT22;10495;50.922;4.760;2023-07-02T02:17:56;18.80;80.90
20672;DHT22;10495;50.922;4.760;2023-07-02T02:20:21;18.80;81.00
20672;DHT22;10495;50.922;4.760;2023-07-02T02:22:47;18.70;80.80
20672;DHT22;10495;50.922;4.760;2023-07-02T02:25:13;18.70;81.10
20672;DHT22;10495;50.922;4.760;2023-07-02T02:27:39;18.80;81.00
20672;DHT22;10495;50.922;4.760;2023-07-02T02:30:05;18.70;81.00
20672;DHT22;10495;50.922;4.760;2023-07-02T02:32:32;18.70;81.20
20672;DHT22;10495;50.922;4.760;2023-07-02T02:34:57;18.70;81.30
20672;DHT22;10495;50.922;4.760;2023-07-02T02:37:23;18.70;81.60
20672;DHT22;10495;50.922;4.760;2023-07-02T02:39:49;18.70;81.50
20672;DHT22;10495;50.922;4.760;2023-07-02T02:42:15;18.70;81.40
20672;DHT22;10495;50.922;4.760;2023-07-02T02:44:40;18.70;81.40
20672;DHT22;10495;50.922;4.760;2023-07-02T02:47:06;18.70;81.50
20672;DHT22;10495;50.922;4.760;2023-07-02T02:49:32;18.60;81.80
20672;DHT22;10495;50.922;4.760;2023-07-02T02:51:57;18.60;82.10
20672;DHT22;10495;50.922;4.760;2023-07-02T02:54:23;18.50;82.20
20672;DHT22;10495;50.922;4.760;2023-07-02T02:56:48;18.40;82.60
20672;DHT22;10495;50.922;4.760;2023-07-02T02:59:14;18.40;82.60
20672;DHT22;10495;50.922;4.760;2023-07-02T03:01:39;18.50;82.60
20672;DHT22;10495;50.922;4.760;2023-07-02T03:04:05;18.40;82.50
20672;DHT22;10495;50.922;4.760;2023-07-02T03:06:33;18.50;82.80
20672;DHT22;10495;50.922;4.760;2023-07-02T03:08:59;18.40;82.70
20672;DHT22;10495;50.922;4.760;2023-07-02T03:11:24;18.30;83.00
20672;DHT22;10495;50.922;4.760;2023-07-02T03:13:50;18.30;83.10
20672;DHT22;10495;50.922;4.760;2023-07-02T03:16:16;18.30;83.20
20672;DHT22;10495;50.922;4.760;2023-07-02T03:18:41;18.20;83.30
20672;DHT22;10495;50.922;4.760;2023-07-02T03:21:07;18.20;83.50
20672;DHT22;10495;50.922;4.760;2023-07-02T03:23:32;18.30;83.40
20672;DHT22;10495;50.922;4.760;2023-07-02T03:25:58;18.20;83.50
20672;DHT22;10495;50.922;4.760;2023-07-02T03:28:24;18.10;83.70
20672;DHT22;10495;50.922;4.760;2023-07-02T03:30:49;18.20;83.60
20672;DHT22;10495;50.922;4.760;2023-07-02T03:33:15;18.10;83.80
20672;DHT22;10495;50.922;4.760;2023-07-02T03:35:40;18.10;83.70
20672;DHT22;10495;50.922;4.760;2023-07-02T03:38:06;18.10;83.70
20672;DHT22;10495;50.922;4.760;2023-07-02T03:40:32;18.10;83.90
20672;DHT22;10495;50.922;4.760;2023-07-02T03:42:57;18.00;83.90
20672;DHT22;10495;50.922;4.760;2023-07-02T03:45:23;18.00;84.10
20672;DHT22;10495;50.922;4.760;2023-07-02T03:47:48;17.90;85.00
20672;DHT22;10495;50.922;4.760;2023-07-02T03:50:14;17.80;84.60
20672;DHT22;10495;50.922;4.760;2023-07-02T03:52:40;17.80;84.50
20672;DHT22;10495;50.922;4.760;2023-07-02T03:55:05;18.00;84.60
20672;DHT22;10495;50.922;4.760;2023-07-02T03:57:31;17.80;84.80
20672;DHT22;10495;50.922;4.760;2023-07-02T03:59:57;17.80;84.90
20672;DHT22;10495;50.922;4.760;2023-07-02T04:02:22;17.80;84.90
20672;DHT22;10495;50.922;4.760;2023-07-02T04:04:48;17.80;85.40
20672;DHT22;10495;50.922;4.760;2023-07-02T04:07:14;17.70;85.30
20672;DHT22;10495;50.922;4.760;2023-07-02T04:09:39;17.80;85.40
20672;DHT22;10495;50.922;4.760;2023-07-02T04:12:05;17.80;85.50
20672;DHT22;10495;50.922;4.760;2023-07-02T04:14:31;17.80;85.70
20672;DHT22;10495;50.922;4.760;2023-07-02T04:16:57;17.70;85.90
20672;DHT22;10495;50.922;4.760;2023-07-02T04:19:22;17.70;86.00
20672;DHT22;10495;50.922;4.760;2023-07-02T04:21:48;17.70;86.70
20672;DHT22;10495;50.922;4.760;2023-07-02T04:24:14;17.70;86.50
20672;DHT22;10495;50.922;4.760;2023-07-02T04:26:39;17.80;86.10
20672;DHT22;10495;50.922;4.760;2023-07-02T04:29:09;17.80;86.00
20672;DHT22;10495;50.922;4.760;2023-07-02T04:31:34;17.90;86.20
20672;DHT22;10495;50.922;4.760;2023-07-02T04:34:00;17.90;86.10
20672;DHT22;10495;50.922;4.760;2023-07-02T04:36:26;17.80;86.60
20672;DHT22;10495;50.922;4.760;2023-07-02T04:38:51;17.90;86.30
20672;DHT22;10495;50.922;4.760;2023-07-02T04:41:18;17.90;86.60
20672;DHT22;10495;50.922;4.760;2023-07-02T04:43:44;17.90;86.60
20672;DHT22;10495;50.922;4.760;2023-07-02T04:46:11;17.90;86.80
20672;DHT22;10495;50.922;4.760;2023-07-02T04:48:38;17.90;86.90
20672;DHT22;10495;50.922;4.760;2023-07-02T04:51:03;18.10;86.60
20672;DHT22;10495;50.922;4.760;2023-07-02T04:53:29;18.10;87.00
20672;DHT22;10495;50.922;4.760;2023-07-02T04:55:55;18.10;86.90
20672;DHT22;10495;50.922;4.760;2023-07-02T04:58:22;18.30;86.70
20672;DHT22;10495;50.922;4.760;2023-07-02T05:00:48;18.40;87.10
20672;DHT22;10495;50.922;4.760;2023-07-02T05:03:14;18.70;86.20
20672;DHT22;10495;50.922;4.760;2023-07-02T05:05:39;18.90;86.50
20672;DHT22;10495;50.922;4.760;2023-07-02T05:08:05;19.00;85.90
20672;DHT22;10495;50.922;4.760;2023-07-02T05:10:31;19.30;85.60
20672;DHT22;10495;50.922;4.760;2023-07-02T05:12:57;19.30;85.40
20672;DHT22;10495;50.922;4.760;2023-07-02T05:15:23;19.50;85.30
20672;DHT22;10495;50.922;4.760;2023-07-02T05:17:49;19.70;84.90
20672;DHT22;10495;50.922;4.760;2023-07-02T05:20:15;19.80;84.50
20672;DHT22;10495;50.922;4.760;2023-07-02T05:22:40;19.80;83.20
20672;DHT22;10495;50.922;4.760;2023-07-02T05:25:06;20.00;83.60
20672;DHT22;10495;50.922;4.760;2023-07-02T05:27:32;20.40;82.90
20672;DHT22;10495;50.922;4.760;2023-07-02T05:29:58;20.70;82.90
20672;DHT22;10495;50.922;4.760;2023-07-02T05:32:23;21.00;81.50
20672;DHT22;10495;50.922;4.760;2023-07-02T05:34:49;21.10;81.80
20672;DHT22;10495;50.922;4.760;2023-07-02T05:37:14;21.30;82.20
20672;DHT22;10495;50.922;4.760;2023-07-02T05:39:40;21.70;81.30
20672;DHT22;10495;50.922;4.760;2023-07-02T05:42:06;22.00;78.90
20672;DHT22;10495;50.922;4.760;2023-07-02T05:44:31;22.20;76.60
20672;DHT22;10495;50.922;4.760;2023-07-02T05:46:57;22.40;75.80
20672;DHT22;10495;50.922;4.760;2023-07-02T05:49:22;22.20;75.60
20672;DHT22;10495;50.922;4.760;2023-07-02T05:51:48;22.30;74.90
20672;DHT22;10495;50.922;4.760;2023-07-02T05:54:14;22.20;74.30
20672;DHT22;10495;50.922;4.760;2023-07-02T05:56:39;22.00;75.10
20672;DHT22;10495;50.922;4.760;2023-07-02T05:59:05;22.00;75.50
20672;DHT22;10495;50.922;4.760;2023-07-02T06:01:30;21.90;75.30
20672;DHT22;10495;50.922;4.760;2023-07-02T06:03:56;22.00;75.60
20672;DHT22;10495;50.922;4.760;2023-07-02T06:06:22;21.90;75.20
20672;DHT22;10495;50.922;4.760;2023-07-02T06:08:50;22.00;75.10
20672;DHT22;10495;50.922;4.760;2023-07-02T06:11:15;21.90;75.20
20672;DHT22;10495;50.922;4.760;2023-07-02T06:13:41;21.80;75.30
20672;DHT22;10495;50.922;4.760;2023-07-02T06:16:06;21.80;75.30
20672;DHT22;10495;50.922;4.760;2023-07-02T06:18:32;21.60;76.50
20672;DHT22;10495;50.922;4.760;2023-07-02T06:20:57;21.70;76.60
20672;DHT22;10495;50.922;4.760;2023-07-02T06:23:23;21.70;76.30
20672;DHT22;10495;50.922;4.760;2023-07-02T06:25:49;21.80;76.00
20672;DHT22;10495;50.922;4.760;2023-07-02T06:28:17;21.80;76.00
20672;DHT22;10495;50.922;4.760;2023-07-02T06:30:42;21.80;75.80
20672;DHT22;10495;50.922;4.760;2023-07-02T06:33:08;21.90;76.50
20672;DHT22;10495;50.922;4.760;2023-07-02T06:35:34;22.10;75.70
20672;DHT22;10495;50.922;4.760;2023-07-02T06:37:59;22.20;75.00
20672;DHT22;10495;50.922;4.760;2023-07-02T06:40:25;22.10;74.80
20672;DHT22;10495;50.922;4.760;2023-07-02T06:42:50;22.30;74.60
20672;DHT22;10495;50.922;4.760;2023-07-02T06:45:16;22.40;75.00
20672;DHT22;10495;50.922;4.760;2023-07-02T06:47:41;22.50;74.40
20672;DHT22;10495;50.922;4.760;2023-07-02T06:50:07;22.70;71.50
20672;DHT22;10495;50.922;4.760;2023-07-02T06:52:33;22.60;72.10
20672;DHT22;10495;50.922;4.760;2023-07-02T06:54:58;22.70;74.50
20672;DHT22;10495;50.922;4.760;2023-07-02T06:57:24;22.80;73.30
20672;DHT22;10495;50.922;4.760;2023-07-02T06:59:50;23.00;73.40
20672;DHT22;10495;50.922;4.760;2023-07-02T07:02:15;23.00;72.10
20672;DHT22;10495;50.922;4.760;2023-07-02T07:04:41;23.00;71.30
20672;DHT22;10495;50.922;4.760;2023-07-02T07:07:07;23.00;72.10
20672;DHT22;10495;50.922;4.760;2023-07-02T07:09:32;23.10;69.70
20672;DHT22;10495;50.922;4.760;2023-07-02T07:11:58;23.10;68.00
20672;DHT22;10495;50.922;4.760;2023-07-02T07:14:24;23.00;68.60
20672;DHT22;10495;50.922;4.760;2023-07-02T07:16:49;23.00;69.00
20672;DHT22;10495;50.922;4.760;2023-07-02T07:19:16;22.90;71.20
20672;DHT22;10495;50.922;4.760;2023-07-02T07:21:41;23.10;70.70
20672;DHT22;10495;50.922;4.760;2023-07-02T07:24:09;23.10;70.50
20672;DHT22;10495;50.922;4.760;2023-07-02T07:26:34;23.10;68.60
20672;DHT22;10495;50.922;4.760;2023-07-02T07:29:00;23.30;68.50
20672;DHT22;10495;50.922;4.760;2023-07-02T07:31:25;23.30;69.60
20672;DHT22;10495;50.922;4.760;2023-07-02T07:33:51;23.30;67.20
20672;DHT22;10495;50.922;4.760;2023-07-02T07:36:17;23.30;67.70
20672;DHT22;10495;50.922;4.760;2023-07-02T07:38:45;23.50;68.40
20672;DHT22;10495;50.922;4.760;2023-07-02T07:41:11;23.60;66.60
20672;DHT22;10495;50.922;4.760;2023-07-02T07:43:37;23.80;66.40
20672;DHT22;10495;50.922;4.760;2023-07-02T07:46:02;24.00;63.70
20672;DHT22;10495;50.922;4.760;2023-07-02T07:48:28;24.20;62.00
20672;DHT22;10495;50.922;4.760;2023-07-02T07:50:53;24.30;61.20
20672;DHT22;10495;50.922;4.760;2023-07-02T07:53:19;24.20;62.30
20672;DHT22;10495;50.922;4.760;2023-07-02T07:55:44;23.80;61.70
20672;DHT22;10495;50.922;4.760;2023-07-02T07:58:10;23.70;61.90
20672;DHT22;10495;50.922;4.760;2023-07-02T08:00:36;23.90;60.40
20672;DHT22;10495;50.922;4.760;2023-07-02T08:03:02;23.80;62.00
20672;DHT22;10495;50.922;4.760;2023-07-02T08:05:29;23.60;59.80
20672;DHT22;10495;50.922;4.760;2023-07-02T08:07:55;23.70;60.90
20672;DHT22;10495;50.922;4.760;2023-07-02T08:10:21;23.70;60.50
20672;DHT22;10495;50.922;4.760;2023-07-02T08:12:46;23.80;62.10
20672;DHT22;10495;50.922;4.760;2023-07-02T08:15:13;24.00;59.70
20672;DHT22;10495;50.922;4.760;2023-07-02T08:17:39;24.00;59.10
20672;DHT22;10495;50.922;4.760;2023-07-02T08:20:05;24.00;58.40
20672;DHT22;10495;50.922;4.760;2023-07-02T08:22:37;24.00;58.70
20672;DHT22;10495;50.922;4.760;2023-07-02T08:25:03;24.40;58.00
20672;DHT22;10495;50.922;4.760;2023-07-02T08:27:29;24.30;57.60
20672;DHT22;10495;50.922;4.760;2023-07-02T08:29:55;24.50;56.90
20672;DHT22;10495;50.922;4.760;2023-07-02T08:32:20;24.40;57.10
20672;DHT22;10495;50.922;4.760;2023-07-02T08:34:46;24.40;57.20
20672;DHT22;10495;50.922;4.760;2023-07-02T08:37:12;24.80;57.80
20672;DHT22;10495;50.922;4.760;2023-07-02T08:39:38;25.20;56.80
20672;DHT22;10495;50.922;4.760;2023-07-02T08:42:05;25.50;56.70
20672;DHT22;10495;50.922;4.760;2023-07-02T08:44:31;25.50;55.90
20672;DHT22;10495;50.922;4.760;2023-07-02T08:46:57;25.40;56.10
20672;DHT22;10495;50.922;4.760;2023-07-02T08:49:23;25.60;56.00
20672;DHT22;10495;50.922;4.760;2023-07-02T08:51:49;25.70;56.40
20672;DHT22;10495;50.922;4.760;2023-07-02T08:54:15;25.70;56.20
20672;DHT22;10495;50.922;4.760;2023-07-02T08:56:42;25.70;55.90
20672;DHT22;10495;50.922;4.760;2023-07-02T08:59:09;25.90;56.10
20672;DHT22;10495;50.922;4.760;2023-07-02T09:01:55;25.80;57.00
20672;DHT22;10495;50.922;4.760;2023-07-02T09:04:25;26.00;55.80
20672;DHT22;10495;50.922;4.760;2023-07-02T09:07:08;25.90;54.90
20672;DHT22;10495;50.922;4.760;2023-07-02T09:09:44;25.80;55.60
20672;DHT22;10495;50.922;4.760;2023-07-02T09:15:00;26.60;57.20
20672;DHT22;10495;50.922;4.760;2023-07-02T09:17:31;27.20;55.70
20672;DHT22;10495;50.922;4.760;2023-07-02T09:19:58;27.50;54.00
20672;DHT22;10495;50.922;4.760;2023-07-02T09:22:26;27.90;55.70
20672;DHT22;10495;50.922;4.760;2023-07-02T09:24:59;28.20;53.40
20672;DHT22;10495;50.922;4.760;2023-07-02T09:30:12;28.30;54.20
20672;DHT22;10495;50.922;4.760;2023-07-02T09:32:39;28.30;54.70
20672;DHT22;10495;50.922;4.760;2023-07-02T09:35:06;28.70;53.40
20672;DHT22;10495;50.922;4.760;2023-07-02T09:37:32;28.70;52.40
20672;DHT22;10495;50.922;4.760;2023-07-02T09:39:58;28.00;52.00
20672;DHT22;10495;50.922;4.760;2023-07-02T09:42:25;27.60;52.50
20672;DHT22;10495;50.922;4.760;2023-07-02T09:44:58;27.30;53.00
20672;DHT22;10495;50.922;4.760;2023-07-02T09:47:25;27.00;52.70
20672;DHT22;10495;50.922;4.760;2023-07-02T09:49:55;26.70;53.40
20672;DHT22;10495;50.922;4.760;2023-07-02T09:52:23;26.50;53.60
20672;DHT22;10495;50.922;4.760;2023-07-02T09:54:49;26.10;53.70
20672;DHT22;10495;50.922;4.760;2023-07-02T09:57:14;25.90;54.30
20672;DHT22;10495;50.922;4.760;2023-07-02T09:59:40;25.70;53.90
20672;DHT22;10495;50.922;4.760;2023-07-02T10:02:07;25.50;54.00
20672;DHT22;10495;50.922;4.760;2023-07-02T10:04:44;25.60;55.00
20672;DHT22;10495;50.922;4.760;2023-07-02T10:07:10;25.60;54.70
20672;DHT22;10495;50.922;4.760;2023-07-02T10:09:42;25.90;55.50
20672;DHT22;10495;50.922;4.760;2023-07-02T10:12:25;26.30;55.30
20672;DHT22;10495;50.922;4.760;2023-07-02T10:14:52;26.30;54.90
20672;DHT22;10495;50.922;4.760;2023-07-02T10:20:06;26.00;53.30
20672;DHT22;10495;50.922;4.760;2023-07-02T10:22:49;25.80;54.10
20672;DHT22;10495;50.922;4.760;2023-07-02T10:25:25;25.90;54.40
20672;DHT22;10495;50.922;4.760;2023-07-02T10:27:51;25.80;54.30
20672;DHT22;10495;50.922;4.760;2023-07-02T10:30:16;25.70;54.50
20672;DHT22;10495;50.922;4.760;2023-07-02T10:32:42;25.40;53.80
20672;DHT22;10495;50.922;4.760;2023-07-02T10:35:14;25.20;53.60
20672;DHT22;10495;50.922;4.760;2023-07-02T10:37:40;25.10;53.90
20672;DHT22;10495;50.922;4.760;2023-07-02T10:40:07;25.00;53.80
20672;DHT22;10495;50.922;4.760;2023-07-02T10:42:33;24.70;54.10
20672;DHT22;10495;50.922;4.760;2023-07-02T10:44:59;24.70;54.90
20672;DHT22;10495;50.922;4.760;2023-07-02T10:47:25;24.60;54.70
20672;DHT22;10495;50.922;4.760;2023-07-02T10:49:51;24.60;54.70
20672;DHT22;10495;50.922;4.760;2023-07-02T10:52:16;24.70;55.10
20672;DHT22;10495;50.922;4.760;2023-07-02T10:54:48;24.80;55.30
20672;DHT22;10495;50.922;4.760;2023-07-02T10:57:15;25.00;55.40
20672;DHT22;10495;50.922;4.760;2023-07-02T10:59:46;25.20;55.40
20672;DHT22;10495;50.922;4.760;2023-07-02T11:02:11;25.30;54.20
20672;DHT22;10495;50.922;4.760;2023-07-02T11:04:37;25.20;53.90
20672;DHT22;10495;50.922;4.760;2023-07-02T11:07:04;25.30;53.80
20672;DHT22;10495;50.922;4.760;2023-07-02T11:09:30;25.00;53.60
20672;DHT22;10495;50.922;4.760;2023-07-02T11:12:00;24.70;53.50
20672;DHT22;10495;50.922;4.760;2023-07-02T11:14:30;24.50;53.70
20672;DHT22;10495;50.922;4.760;2023-07-02T11:16:57;24.50;54.20
20672;DHT22;10495;50.922;4.760;2023-07-02T11:19:23;24.50;54.10
20672;DHT22;10495;50.922;4.760;2023-07-02T11:21:53;24.70;53.60
20672;DHT22;10495;50.922;4.760;2023-07-02T11:24:33;24.50;54.10
20672;DHT22;10495;50.922;4.760;2023-07-02T11:27:00;24.60;53.30
20672;DHT22;10495;50.922;4.760;2023-07-02T11:29:28;24.60;54.10
20672;DHT22;10495;50.922;4.760;2023-07-02T11:31:54;24.70;53.70
20672;DHT22;10495;50.922;4.760;2023-07-02T11:34:23;24.60;53.50
20672;DHT22;10495;50.922;4.760;2023-07-02T11:36:50;24.70;53.80
20672;DHT22;10495;50.922;4.760;2023-07-02T11:39:15;24.80;54.40
20672;DHT22;10495;50.922;4.760;2023-07-02T11:41:43;24.90;54.80
20672;DHT22;10495;50.922;4.760;2023-07-02T11:44:09;24.70;53.00
20672;DHT22;10495;50.922;4.760;2023-07-02T11:46:35;24.70;53.50
20672;DHT22;10495;50.922;4.760;2023-07-02T11:49:02;24.90;54.20
20672;DHT22;10495;50.922;4.760;2023-07-02T11:51:28;25.00;52.60
20672;DHT22;10495;50.922;4.760;2023-07-02T11:53:53;25.00;53.20
20672;DHT22;10495;50.922;4.760;2023-07-02T11:56:19;25.00;53.10
20672;DHT22;10495;50.922;4.760;2023-07-02T11:58:45;25.00;52.90
20672;DHT22;10495;50.922;4.760;2023-07-02T12:01:10;25.00;53.10
20672;DHT22;10495;50.922;4.760;2023-07-02T12:03:36;25.20;52.80
20672;DHT22;10495;50.922;4.760;2023-07-02T12:06:01;25.10;53.30
20672;DHT22;10495;50.922;4.760;2023-07-02T12:08:27;25.00;53.60
20672;DHT22;10495;50.922;4.760;2023-07-02T12:10:53;24.90;53.80
20672;DHT22;10495;50.922;4.760;2023-07-02T12:13:18;25.00;53.90
20672;DHT22;10495;50.922;4.760;2023-07-02T12:15:47;25.20;53.00
20672;DHT22;10495;50.922;4.760;2023-07-02T12:18:12;25.00;52.70
20672;DHT22;10495;50.922;4.760;2023-07-02T12:20:39;25.00;52.90
20672;DHT22;10495;50.922;4.760;2023-07-02T12:23:05;25.00;52.40
20672;DHT22;10495;50.922;4.760;2023-07-02T12:25:31;25.10;52.30
20672;DHT22;10495;50.922;4.760;2023-07-02T12:27:56;25.00;52.40
20672;DHT22;10495;50.922;4.760;2023-07-02T12:30:22;25.10;52.60
20672;DHT22;10495;50.922;4.760;2023-07-02T12:32:48;25.20;52.00
20672;DHT22;10495;50.922;4.760;2023-07-02T12:35:14;25.20;52.60
20672;DHT22;10495;50.922;4.760;2023-07-02T12:37:46;25.10;53.20
20672;DHT22;10495;50.922;4.760;2023-07-02T12:40:12;25.10;52.80
20672;DHT22;10495;50.922;4.760;2023-07-02T12:45:06;24.60;53.40
20672;DHT22;10495;50.922;4.760;2023-07-02T12:47:31;24.60;53.70
20672;DHT22;10495;50.922;4.760;2023-07-02T12:49:57;24.60;53.80
20672;DHT22;10495;50.922;4.760;2023-07-02T12:52:22;24.70;53.00
20672;DHT22;10495;50.922;4.760;2023-07-02T12:54:48;24.60;53.30
20672;DHT22;10495;50.922;4.760;2023-07-02T12:57:13;24.40;53.70
20672;DHT22;10495;50.922;4.760;2023-07-02T12:59:39;24.70;54.50
20672;DHT22;10495;50.922;4.760;2023-07-02T13:02:05;24.80;53.80
20672;DHT22;10495;50.922;4.760;2023-07-02T13:04:31;25.10;53.40
20672;DHT22;10495;50.922;4.760;2023-07-02T13:06:57;24.70;52.40
20672;DHT22;10495;50.922;4.760;2023-07-02T13:09:22;24.70;53.30
20672;DHT22;10495;50.922;4.760;2023-07-02T13:11:48;24.50;53.10
20672;DHT22;10495;50.922;4.760;2023-07-02T13:14:13;24.30;53.70
20672;DHT22;10495;50.922;4.760;2023-07-02T13:16:40;24.40;53.50
20672;DHT22;10495;50.922;4.760;2023-07-02T13:19:06;24.60;52.90
20672;DHT22;10495;50.922;4.760;2023-07-02T13:21:31;24.80;52.70
20672;DHT22;10495;50.922;4.760;2023-07-02T13:23:57;24.60;52.70
20672;DHT22;10495;50.922;4.760;2023-07-02T13:26:22;24.70;54.20
20672;DHT22;10495;50.922;4.760;2023-07-02T13:28:48;24.70;54.00
20672;DHT22;10495;50.922;4.760;2023-07-02T13:31:14;24.90;54.20
20672;DHT22;10495;50.922;4.760;2023-07-02T13:33:41;25.00;53.20
20672;DHT22;10495;50.922;4.760;2023-07-02T13:36:07;25.10;53.10
20672;DHT22;10495;50.922;4.760;2023-07-02T13:38:33;25.30;52.70
20672;DHT22;10495;50.922;4.760;2023-07-02T13:40:59;25.40;52.40
20672;DHT22;10495;50.922;4.760;2023-07-02T13:43:24;25.70;52.50
20672;DHT22;10495;50.922;4.760;2023-07-02T13:45:50;25.60;52.10
20672;DHT22;10495;50.922;4.760;2023-07-02T13:48:16;25.50;51.90
20672;DHT22;10495;50.922;4.760;2023-07-02T13:50:41;25.40;52.20
20672;DHT22;10495;50.922;4.760;2023-07-02T13:53:08;25.50;52.20
20672;DHT22;10495;50.922;4.760;2023-07-02T13:55:34;25.00;52.50
20672;DHT22;10495;50.922;4.760;2023-07-02T13:58:00;25.00;52.00
20672;DHT22;10495;50.922;4.760;2023-07-02T14:00:29;25.10;53.00
20672;DHT22;10495;50.922;4.760;2023-07-02T14:02:54;25.20;52.90
20672;DHT22;10495;50.922;4.760;2023-07-02T14:05:20;25.30;52.30
20672;DHT22;10495;50.922;4.760;2023-07-02T14:07:46;25.50;51.90
20672;DHT22;10495;50.922;4.760;2023-07-02T14:10:12;25.80;51.60
20672;DHT22;10495;50.922;4.760;2023-07-02T14:12:39;25.80;51.10
20672;DHT22;10495;50.922;4.760;2023-07-02T14:15:06;25.90;51.30
20672;DHT22;10495;50.922;4.760;2023-07-02T14:17:32;25.80;51.60
20672;DHT22;10495;50.922;4.760;2023-07-02T14:19:57;25.90;51.90
20672;DHT22;10495;50.922;4.760;2023-07-02T14:22:23;26.10;51.30
20672;DHT22;10495;50.922;4.760;2023-07-02T14:24:48;26.10;52.20
20672;DHT22;10495;50.922;4.760;2023-07-02T14:27:14;25.80;52.10
20672;DHT22;10495;50.922;4.760;2023-07-02T14:29:40;25.90;52.20
20672;DHT22;10495;50.922;4.760;2023-07-02T14:32:07;26.00;51.80
20672;DHT22;10495;50.922;4.760;2023-07-02T14:34:33;26.00;51.50
20672;DHT22;10495;50.922;4.760;2023-07-02T14:36:58;26.10;51.20
20672;DHT22;10495;50.922;4.760;2023-07-02T14:39:24;26.10;51.10
20672;DHT22;10495;50.922;4.760;2023-07-02T14:41:51;26.20;51.20
20672;DHT22;10495;50.922;4.760;2023-07-02T14:44:17;26.30;51.60
20672;DHT22;10495;50.922;4.760;2023-07-02T14:46:43;26.20;51.10
20672;DHT22;10495;50.922;4.760;2023-07-02T14:49:09;25.90;51.10
20672;DHT22;10495;50.922;4.760;2023-07-02T14:51:35;26.10;51.90
20672;DHT22;10495;50.922;4.760;2023-07-02T14:54:01;26.20;51.40
20672;DHT22;10495;50.922;4.760;2023-07-02T14:56:31;26.20;50.80
20672;DHT22;10495;50.922;4.760;2023-07-02T14:58:57;26.20;51.50
20672;DHT22;10495;50.922;4.760;2023-07-02T15:01:22;26.20;51.20
20672;DHT22;10495;50.922;4.760;2023-07-02T15:03:48;26.20;51.80
20672;DHT22;10495;50.922;4.760;2023-07-02T15:06:16;26.10;51.30
20672;DHT22;10495;50.922;4.760;2023-07-02T15:08:42;26.00;50.70
20672;DHT22;10495;50.922;4.760;2023-07-02T15:11:09;26.00;51.00
20672;DHT22;10495;50.922;4.760;2023-07-02T15:13:35;26.10;50.80
20672;DHT22;10495;50.922;4.760;2023-07-02T15:16:01;25.80;50.90
20672;DHT22;10495;50.922;4.760;2023-07-02T15:18:27;25.90;50.70
20672;DHT22;10495;50.922;4.760;2023-07-02T15:20:53;25.90;50.90
20672;DHT22;10495;50.922;4.760;2023-07-02T15:23:23;25.80;51.00
20672;DHT22;10495;50.922;4.760;2023-07-02T15:25:57;25.70;51.80
20672;DHT22;10495;50.922;4.760;2023-07-02T15:28:24;25.70;51.20
20672;DHT22;10495;50.922;4.760;2023-07-02T15:31:02;25.70;51.00
20672;DHT22;10495;50.922;4.760;2023-07-02T15:33:28;25.50;51.30
20672;DHT22;10495;50.922;4.760;2023-07-02T15:35:54;25.50;51.60